sensor_id;sensor_type;location;lat;lon;timestamp;pressure;altitude;pressure_sealevel;temperature;humidity
20942;BME280;10630;53.734;10.282;2022-07-01T00:00:41;100422.84;;;27.94;62.91
20942;BME280;10630;53.734;10.282;2022-07-01T00:03:11;100181.03;;;26.41;63.30
20942;BME280;10630;53.734;10.282;2022-07-01T00:05:46;100284.19;;;26.68;63.53
20942;BME280;10630;53.734;10.282;2022-07-01T00:09:24;100659.97;;;29.25;63.30
20942;BME280;10630;53.734;10.282;2022-07-01T00:11:52;100810.56;;;27.97;75.12
20942;BME280;10630;53.734;10.282;2022-07-01T00:14:35;100615.63;;;27.01;73.21
20942;BME280;10630;53.734;10.282;2022-07-01T00:17:10;100660.47;;;27.51;71.75
20942;BME280;10630;53.734;10.282;2022-07-01T00:19:51;100781.81;;;28.00;72.48
20942;BME280;10630;53.734;10.282;2022-07-01T00:22:18;100621.13;;;27.52;70.97
20942;BME280;10630;53.734;10.282;2022-07-01T00:24:56;100368.09;;;26.92;65.21
20942;BME280;10630;53.734;10.282;2022-07-01T00:27:28;100523.88;;;28.09;63.60
20942;BME280;10630;53.734;10.282;2022-07-01T00:29:59;100336.06;;;26.97;61.67
20942;BME280;10630;53.734;10.282;2022-07-01T00:32:43;100584.25;;;28.72;61.77
20942;BME280;10630;53.734;10.282;2022-07-01T00:35:12;100769.91;;;30.24;60.89
20942;BME280;10630;53.734;10.282;2022-07-01T00:43:41;100765.44;;;29.52;68.52
20942;BME280;10630;53.734;10.282;2022-07-01T00:46:24;100768.25;;;29.85;69.30
20942;BME280;10630;53.734;10.282;2022-07-01T00:48:58;100719.13;;;29.26;69.93
20942;BME280;10630;53.734;10.282;2022-07-01T00:51:30;100756.09;;;29.53;69.19
20942;BME280;10630;53.734;10.282;2022-07-01T00:54:00;100657.44;;;28.85;69.83
20942;BME280;10630;53.734;10.282;2022-07-01T00:56:49;100693.66;;;29.01;71.22
20942;BME280;10630;53.734;10.282;2022-07-01T00:59:17;100748.16;;;29.51;71.80
20942;BME280;10630;53.734;10.282;2022-07-01T01:01:58;100761.41;;;29.20;73.22
20942;BME280;10630;53.734;10.282;2022-07-01T01:04:26;100756.66;;;29.01;75.35
20942;BME280;10630;53.734;10.282;2022-07-01T01:06:53;100758.25;;;29.08;76.48
20942;BME280;10630;53.734;10.282;2022-07-01T01:09:20;100747.97;;;28.94;75.77
20942;BME280;10630;53.734;10.282;2022-07-01T01:11:47;100740.13;;;28.87;77.46
20942;BME280;10630;53.734;10.282;2022-07-01T01:14:17;100710.47;;;28.65;77.59
20942;BME280;10630;53.734;10.282;2022-07-01T01:17:09;100770.56;;;28.81;79.36
20942;BME280;10630;53.734;10.282;2022-07-01T01:19:36;100785.66;;;28.43;80.36
20942;BME280;10630;53.734;10.282;2022-07-01T01:22:03;100791.19;;;28.73;79.85
20942;BME280;10630;53.734;10.282;2022-07-01T01:24:39;100651.94;;;27.97;80.18
20942;BME280;10630;53.734;10.282;2022-07-01T01:27:13;100623.31;;;27.55;82.05
20942;BME280;10630;53.734;10.282;2022-07-01T01:29:47;100345.69;;;26.00;84.69
20942;BME280;10630;53.734;10.282;2022-07-01T01:32:19;100694.56;;;28.03;85.15
20942;BME280;10630;53.734;10.282;2022-07-01T01:34:49;100544.22;;;27.29;81.76
20942;BME280;10630;53.734;10.282;2022-07-01T01:37:22;100733.66;;;28.43;81.11
20942;BME280;10630;53.734;10.282;2022-07-01T01:39:56;100526.97;;;27.33;80.69
20942;BME280;10630;53.734;10.282;2022-07-01T01:51:21;100648.84;;;27.74;85.74
20942;BME280;10630;53.734;10.282;2022-07-01T01:53:51;100501.09;;;26.70;85.05
20942;BME280;10630;53.734;10.282;2022-07-01T01:56:22;100664.53;;;27.98;82.54
20942;BME280;10630;53.734;10.282;2022-07-01T01:58:49;100570.09;;;26.86;84.21
20942;BME280;10630;53.734;10.282;2022-07-01T02:01:19;100669.91;;;27.74;83.52
20942;BME280;10630;53.734;10.282;2022-07-01T02:03:50;100068.69;;;23.40;87.37
20942;BME280;10630;53.734;10.282;2022-07-01T02:06:49;100642.41;;;26.94;93.01
20942;BME280;10630;53.734;10.282;2022-07-01T02:09:36;100105.69;;;23.82;86.38
20942;BME280;10630;53.734;10.282;2022-07-01T02:14:49;100204.09;;;24.10;89.06
20942;BME280;10630;53.734;10.282;2022-07-01T02:17:24;100099.09;;;23.37;95.20
20942;BME280;10630;53.734;10.282;2022-07-01T02:20:04;100336.56;;;25.49;86.29
20942;BME280;10630;53.734;10.282;2022-07-01T02:22:33;100387.34;;;26.16;84.49
20942;BME280;10630;53.734;10.282;2022-07-01T02:25:09;100259.31;;;25.04;85.72
20942;BME280;10630;53.734;10.282;2022-07-01T02:28:04;100539.94;;;27.12;84.31
20942;BME280;10630;53.734;10.282;2022-07-01T02:30:34;100390.66;;;25.97;85.17
20942;BME280;10630;53.734;10.282;2022-07-01T02:33:12;100248.44;;;24.88;83.81
20942;BME280;10630;53.734;10.282;2022-07-01T02:35:41;100404.59;;;25.90;84.34
20942;BME280;10630;53.734;10.282;2022-07-01T02:38:17;100504.69;;;26.61;83.57
20942;BME280;10630;53.734;10.282;2022-07-01T02:40:48;100591.94;;;26.86;85.59
20942;BME280;10630;53.734;10.282;2022-07-01T02:43:18;100717.72;;;27.76;84.35
20942;BME280;10630;53.734;10.282;2022-07-01T02:45:49;100729.56;;;28.01;84.72
20942;BME280;10630;53.734;10.282;2022-07-01T02:48:16;100477.41;;;26.55;83.59
20942;BME280;10630;53.734;10.282;2022-07-01T02:50:44;100697.91;;;27.95;83.72
20942;BME280;10630;53.734;10.282;2022-07-01T02:53:13;100719.28;;;27.88;85.12
20942;BME280;10630;53.734;10.282;2022-07-01T02:55:46;100717.63;;;27.87;84.42
20942;BME280;10630;53.734;10.282;2022-07-01T02:58:16;100572.75;;;27.02;84.21
20942;BME280;10630;53.734;10.282;2022-07-01T03:00:45;100705.00;;;27.96;84.14
20942;BME280;10630;53.734;10.282;2022-07-01T03:03:18;100687.31;;;27.88;82.77
20942;BME280;10630;53.734;10.282;2022-07-01T03:05:46;100686.47;;;27.88;83.10
20942;BME280;10630;53.734;10.282;2022-07-01T03:08:20;100715.31;;;28.15;81.58
20942;BME280;10630;53.734;10.282;2022-07-01T03:10:50;100626.53;;;27.57;82.34
20942;BME280;10630;53.734;10.282;2022-07-01T03:13:20;100478.22;;;26.61;82.41
20942;BME280;10630;53.734;10.282;2022-07-01T03:15:49;100714.16;;;28.21;82.97
20942;BME280;10630;53.734;10.282;2022-07-01T03:18:18;100716.97;;;28.10;82.76
20942;BME280;10630;53.734;10.282;2022-07-01T03:20:51;100747.59;;;28.13;83.93
20942;BME280;10630;53.734;10.282;2022-07-01T03:23:21;100729.31;;;28.03;84.49
20942;BME280;10630;53.734;10.282;2022-07-01T03:25:52;100586.97;;;26.99;83.49
20942;BME280;10630;53.734;10.282;2022-07-01T03:28:21;100741.09;;;27.98;86.20
20942;BME280;10630;53.734;10.282;2022-07-01T03:30:54;100759.91;;;28.10;84.88
20942;BME280;10630;53.734;10.282;2022-07-01T03:33:24;100244.91;;;24.57;85.24
20942;BME280;10630;53.734;10.282;2022-07-01T03:36:03;100749.19;;;27.74;85.08
20942;BME280;10630;53.734;10.282;2022-07-01T03:38:33;100794.28;;;28.26;84.05
20942;BME280;10630;53.734;10.282;2022-07-01T03:41:03;100563.56;;;26.72;83.27
20942;BME280;10630;53.734;10.282;2022-07-01T03:43:30;100736.56;;;27.78;84.20
20942;BME280;10630;53.734;10.282;2022-07-01T03:45:58;100745.25;;;27.20;86.52
20942;BME280;10630;53.734;10.282;2022-07-01T03:48:24;100529.94;;;25.80;86.03
20942;BME280;10630;53.734;10.282;2022-07-01T03:50:56;100622.34;;;26.23;87.36
20942;BME280;10630;53.734;10.282;2022-07-01T03:53:23;100772.34;;;27.11;86.80
20942;BME280;10630;53.734;10.282;2022-07-01T03:56:12;100766.81;;;27.31;85.85
20942;BME280;10630;53.734;10.282;2022-07-01T03:58:40;100731.41;;;27.00;85.60
20942;BME280;10630;53.734;10.282;2022-07-01T04:01:10;100797.88;;;27.61;85.54
20942;BME280;10630;53.734;10.282;2022-07-01T04:03:40;100641.94;;;26.82;83.32
20942;BME280;10630;53.734;10.282;2022-07-01T04:06:07;100758.28;;;27.54;83.42
20942;BME280;10630;53.734;10.282;2022-07-01T04:08:33;100796.84;;;27.47;85.85
20942;BME280;10630;53.734;10.282;2022-07-01T04:11:00;100538.91;;;26.22;83.56
20942;BME280;10630;53.734;10.282;2022-07-01T04:13:27;100655.81;;;26.75;85.08
20942;BME280;10630;53.734;10.282;2022-07-01T04:15:58;100750.31;;;27.62;84.24
20942;BME280;10630;53.734;10.282;2022-07-01T04:18:25;100782.63;;;27.50;86.12
20942;BME280;10630;53.734;10.282;2022-07-01T04:20:51;100795.44;;;27.49;88.44
20942;BME280;10630;53.734;10.282;2022-07-01T04:23:36;100788.31;;;27.59;89.40
20942;BME280;10630;53.734;10.282;2022-07-01T04:26:03;100787.53;;;27.48;90.79
20942;BME280;10630;53.734;10.282;2022-07-01T04:28:54;100786.31;;;27.75;89.30
20942;BME280;10630;53.734;10.282;2022-07-01T04:55:18;100765.66;;;27.58;88.26
20942;BME280;10630;53.734;10.282;2022-07-01T04:57:45;100800.81;;;27.75;86.95
20942;BME280;10630;53.734;10.282;2022-07-01T05:00:12;100814.91;;;27.27;91.71
20942;BME280;10630;53.734;10.282;2022-07-01T05:02:41;100781.31;;;27.16;90.08
20942;BME280;10630;53.734;10.282;2022-07-01T05:05:08;100835.31;;;27.61;87.85
20942;BME280;10630;53.734;10.282;2022-07-01T05:07:35;100838.63;;;27.32;91.55
20942;BME280;10630;53.734;10.282;2022-07-01T05:10:02;100787.81;;;27.36;86.94
20942;BME280;10630;53.734;10.282;2022-07-01T05:12:29;100837.47;;;27.69;86.58
20942;BME280;10630;53.734;10.282;2022-07-01T05:14:56;100848.81;;;27.00;90.28
20942;BME280;10630;53.734;10.282;2022-07-01T05:17:23;100852.91;;;26.93;91.34
20942;BME280;10630;53.734;10.282;2022-07-01T05:20:10;100855.09;;;27.01;90.79
20942;BME280;10630;53.734;10.282;2022-07-01T05:22:56;100871.41;;;27.32;89.03
20942;BME280;10630;53.734;10.282;2022-07-01T05:25:23;100778.63;;;26.65;87.97
20942;BME280;10630;53.734;10.282;2022-07-01T05:28:11;100570.59;;;24.29;90.72
20942;BME280;10630;53.734;10.282;2022-07-01T05:38:10;100898.72;;;26.60;91.44
20942;BME280;10630;53.734;10.282;2022-07-01T05:44:14;100550.41;;;24.20;90.17
20942;BME280;10630;53.734;10.282;2022-07-01T05:47:00;100378.59;;;23.21;91.57
20942;BME280;10630;53.734;10.282;2022-07-01T06:16:17;100682.91;;;24.02;86.66
20942;BME280;10630;53.734;10.282;2022-07-01T06:18:48;100687.63;;;24.12;85.34
20942;BME280;10630;53.734;10.282;2022-07-01T06:21:25;100499.75;;;22.83;85.42
20942;BME280;10630;53.734;10.282;2022-07-01T06:24:00;100517.72;;;22.45;87.41
20942;BME280;10630;53.734;10.282;2022-07-01T06:26:28;101034.91;;;25.75;88.73
20942;BME280;10630;53.734;10.282;2022-07-01T06:29:07;101030.63;;;25.85;87.01
20942;BME280;10630;53.734;10.282;2022-07-01T06:31:36;100682.72;;;23.59;85.08
20942;BME280;10630;53.734;10.282;2022-07-01T06:36:56;100490.34;;;22.07;88.86
20942;BME280;10630;53.734;10.282;2022-07-01T06:39:31;100913.03;;;24.95;85.30
20942;BME280;10630;53.734;10.282;2022-07-01T06:42:00;100577.31;;;23.06;83.02
20942;BME280;10630;53.734;10.282;2022-07-01T06:44:32;101037.34;;;25.39;84.79
20942;BME280;10630;53.734;10.282;2022-07-01T06:47:01;101002.78;;;25.40;84.65
20942;BME280;10630;53.734;10.282;2022-07-01T06:49:28;101002.47;;;25.09;84.38
20942;BME280;10630;53.734;10.282;2022-07-01T06:52:01;101083.59;;;24.85;91.85
20942;BME280;10630;53.734;10.282;2022-07-01T06:57:34;100481.69;;;20.27;95.03
20942;BME280;10630;53.734;10.282;2022-07-01T07:05:42;100735.06;;;21.67;99.05
20942;BME280;10630;53.734;10.282;2022-07-01T07:08:38;100723.47;;;21.84;99.93
20942;BME280;10630;53.734;10.282;2022-07-01T07:11:18;100843.69;;;22.64;100.00
20942;BME280;10630;53.734;10.282;2022-07-01T07:14:06;100384.34;;;19.98;99.03
20942;BME280;10630;53.734;10.282;2022-07-01T07:16:48;100740.84;;;21.47;100.00
20942;BME280;10630;53.734;10.282;2022-07-01T07:19:37;100398.00;;;19.91;100.00
20942;BME280;10630;53.734;10.282;2022-07-01T07:22:07;100588.94;;;21.43;99.81
20942;BME280;10630;53.734;10.282;2022-07-01T07:24:43;101003.03;;;24.17;97.13
20942;BME280;10630;53.734;10.282;2022-07-01T07:27:16;101020.41;;;24.38;95.23
20942;BME280;10630;53.734;10.282;2022-07-01T07:29:46;101033.44;;;24.58;93.01
20942;BME280;10630;53.734;10.282;2022-07-01T07:32:16;100766.38;;;23.01;93.43
20942;BME280;10630;53.734;10.282;2022-07-01T07:34:47;101052.56;;;24.41;94.70
20942;BME280;10630;53.734;10.282;2022-07-01T07:37:32;100888.00;;;23.04;98.94
20942;BME280;10630;53.734;10.282;2022-07-01T07:40:12;101014.06;;;23.76;97.46
20942;BME280;10630;53.734;10.282;2022-07-01T07:42:53;100830.28;;;23.08;96.50
20942;BME280;10630;53.734;10.282;2022-07-01T07:45:23;100626.44;;;21.80;96.30
20942;BME280;10630;53.734;10.282;2022-07-01T07:47:57;101033.56;;;24.24;99.31
20942;BME280;10630;53.734;10.282;2022-07-01T07:50:25;100776.16;;;23.02;95.82
20942;BME280;10630;53.734;10.282;2022-07-01T07:52:53;100848.97;;;23.61;95.38
20942;BME280;10630;53.734;10.282;2022-07-01T07:55:21;100843.81;;;23.43;94.05
20942;BME280;10630;53.734;10.282;2022-07-01T07:57:54;100551.34;;;21.59;97.61
20942;BME280;10630;53.734;10.282;2022-07-01T08:00:47;100405.66;;;20.76;92.99
20942;BME280;10630;53.734;10.282;2022-07-01T08:03:21;101047.91;;;24.81;94.64
20942;BME280;10630;53.734;10.282;2022-07-01T08:05:57;101049.22;;;25.01;92.05
20942;BME280;10630;53.734;10.282;2022-07-01T08:08:31;101040.47;;;24.99;91.72
20942;BME280;10630;53.734;10.282;2022-07-01T08:11:00;100669.56;;;21.99;93.71
20942;BME280;10630;53.734;10.282;2022-07-01T08:13:50;101035.41;;;24.41;95.07
20942;BME280;10630;53.734;10.282;2022-07-01T08:16:25;100892.53;;;23.15;93.89
20942;BME280;10630;53.734;10.282;2022-07-01T08:18:58;100931.63;;;23.48;95.34
20942;BME280;10630;53.734;10.282;2022-07-01T08:22:03;101037.72;;;24.10;94.30
20942;BME280;10630;53.734;10.282;2022-07-01T08:24:53;100760.13;;;21.74;99.96
20942;BME280;10630;53.734;10.282;2022-07-01T08:27:26;100505.53;;;20.70;95.23
20942;BME280;10630;53.734;10.282;2022-07-01T08:30:08;100585.69;;;20.88;97.01
20942;BME280;10630;53.734;10.282;2022-07-01T08:36:00;100839.22;;;22.29;100.00
20942;BME280;10630;53.734;10.282;2022-07-01T08:38:35;100833.78;;;22.58;94.77
20942;BME280;10630;53.734;10.282;2022-07-01T08:41:13;100488.84;;;19.85;93.59
20942;BME280;10630;53.734;10.282;2022-07-01T08:43:46;100710.06;;;22.06;89.43
20942;BME280;10630;53.734;10.282;2022-07-01T08:46:15;101085.22;;;24.07;92.72
20942;BME280;10630;53.734;10.282;2022-07-01T08:49:08;100824.69;;;22.06;93.13
20942;BME280;10630;53.734;10.282;2022-07-01T08:52:23;100588.56;;;19.68;99.86
20942;BME280;10630;53.734;10.282;2022-07-01T08:54:56;100858.09;;;22.24;95.32
20942;BME280;10630;53.734;10.282;2022-07-01T08:57:26;100736.34;;;21.76;93.02
20942;BME280;10630;53.734;10.282;2022-07-01T09:00:04;100406.06;;;19.79;91.46
20942;BME280;10630;53.734;10.282;2022-07-01T09:06:18;100884.16;;;23.17;89.70
20942;BME280;10630;53.734;10.282;2022-07-01T09:08:50;100794.75;;;22.42;90.52
20942;BME280;10630;53.734;10.282;2022-07-01T09:11:44;100520.78;;;20.00;93.28
20942;BME280;10630;53.734;10.282;2022-07-01T09:14:17;100530.47;;;19.77;94.75
20942;BME280;10630;53.734;10.282;2022-07-01T09:20:04;100781.91;;;21.79;91.32
20942;BME280;10630;53.734;10.282;2022-07-01T09:38:13;101085.69;;;23.53;92.24
20942;BME280;10630;53.734;10.282;2022-07-01T10:07:11;101150.28;;;24.31;89.87
20942;BME280;10630;53.734;10.282;2022-07-01T10:58:19;101220.47;;;25.02;83.57
20942;BME280;10630;53.734;10.282;2022-07-01T11:01:03;101222.00;;;24.76;85.05
20942;BME280;10630;53.734;10.282;2022-07-01T11:03:46;101243.78;;;24.76;84.42
20942;BME280;10630;53.734;10.282;2022-07-01T11:06:14;101000.25;;;23.44;82.78
20942;BME280;10630;53.734;10.282;2022-07-01T11:08:47;101246.50;;;25.15;83.12
20942;BME280;10630;53.734;10.282;2022-07-01T11:11:17;101244.47;;;24.88;84.28
20942;BME280;10630;53.734;10.282;2022-07-01T11:13:47;101243.81;;;24.98;83.92
20942;BME280;10630;53.734;10.282;2022-07-01T11:16:14;101248.38;;;24.75;84.87
20942;BME280;10630;53.734;10.282;2022-07-01T11:18:49;100918.19;;;22.90;82.26
20942;BME280;10630;53.734;10.282;2022-07-01T11:21:23;101147.34;;;24.15;83.61
20942;BME280;10630;53.734;10.282;2022-07-01T11:24:00;100758.59;;;21.78;84.00
20942;BME280;10630;53.734;10.282;2022-07-01T11:26:33;101032.91;;;23.49;84.53
20942;BME280;10630;53.734;10.282;2022-07-01T11:29:05;100962.13;;;22.75;84.04
20942;BME280;10630;53.734;10.282;2022-07-01T11:31:39;101212.44;;;24.05;84.00
20942;BME280;10630;53.734;10.282;2022-07-01T11:34:19;100892.50;;;22.64;82.23
20942;BME280;10630;53.734;10.282;2022-07-01T11:36:47;101049.47;;;23.64;81.12
20942;BME280;10630;53.734;10.282;2022-07-01T11:39:48;101277.06;;;24.83;82.85
20942;BME280;10630;53.734;10.282;2022-07-01T11:42:15;100963.72;;;22.59;83.39
20942;BME280;10630;53.734;10.282;2022-07-01T11:44:43;101269.81;;;24.72;84.47
20942;BME280;10630;53.734;10.282;2022-07-01T11:47:22;101150.50;;;23.32;87.41
20942;BME280;10630;53.734;10.282;2022-07-01T11:49:52;101267.34;;;24.53;86.76
20942;BME280;10630;53.734;10.282;2022-07-01T11:52:22;101144.66;;;23.69;86.43
20942;BME280;10630;53.734;10.282;2022-07-01T11:54:56;100748.22;;;21.75;83.73
20942;BME280;10630;53.734;10.282;2022-07-01T11:57:49;100996.88;;;22.90;83.62
20942;BME280;10630;53.734;10.282;2022-07-01T12:00:21;101244.41;;;24.66;83.20
20942;BME280;10630;53.734;10.282;2022-07-01T12:02:54;101258.63;;;25.07;84.78
20942;BME280;10630;53.734;10.282;2022-07-01T12:07:48;101270.84;;;25.44;81.52
20942;BME280;10630;53.734;10.282;2022-07-01T12:10:15;101157.19;;;24.56;80.32
20942;BME280;10630;53.734;10.282;2022-07-01T12:12:43;101260.59;;;25.12;82.10
20942;BME280;10630;53.734;10.282;2022-07-01T12:15:16;101208.13;;;24.60;82.98
20942;BME280;10630;53.734;10.282;2022-07-01T12:17:44;101229.66;;;24.79;82.50
20942;BME280;10630;53.734;10.282;2022-07-01T12:20:14;101019.19;;;23.73;81.26
20942;BME280;10630;53.734;10.282;2022-07-01T12:22:42;101225.00;;;24.96;80.75
20942;BME280;10630;53.734;10.282;2022-07-01T12:25:13;101270.19;;;25.37;80.66
20942;BME280;10630;53.734;10.282;2022-07-01T12:27:44;101245.06;;;24.90;82.11
20942;BME280;10630;53.734;10.282;2022-07-01T12:30:23;101270.13;;;25.32;79.21
20942;BME280;10630;53.734;10.282;2022-07-01T12:32:50;101266.63;;;25.14;81.41
20942;BME280;10630;53.734;10.282;2022-07-01T12:35:23;101268.97;;;25.27;80.28
20942;BME280;10630;53.734;10.282;2022-07-01T12:38:06;101281.69;;;25.39;79.79
20942;BME280;10630;53.734;10.282;2022-07-01T12:40:38;101272.44;;;25.40;78.80
20942;BME280;10630;53.734;10.282;2022-07-01T12:43:24;101266.56;;;25.31;80.11
20942;BME280;10630;53.734;10.282;2022-07-01T12:45:59;101118.84;;;24.57;78.84
20942;BME280;10630;53.734;10.282;2022-07-01T12:48:26;101301.56;;;25.39;79.81
20942;BME280;10630;53.734;10.282;2022-07-01T12:50:59;101008.53;;;23.20;81.68
20942;BME280;10630;53.734;10.282;2022-07-01T12:53:28;101273.31;;;25.46;80.46
20942;BME280;10630;53.734;10.282;2022-07-01T12:56:06;101194.28;;;24.79;81.80
20942;BME280;10630;53.734;10.282;2022-07-01T12:58:34;101265.25;;;24.94;83.95
20942;BME280;10630;53.734;10.282;2022-07-01T13:01:15;100990.56;;;23.48;83.35
20942;BME280;10630;53.734;10.282;2022-07-01T13:03:41;101270.81;;;25.39;82.17
20942;BME280;10630;53.734;10.282;2022-07-01T13:06:12;101266.72;;;25.64;81.39
20942;BME280;10630;53.734;10.282;2022-07-01T13:09:02;101263.91;;;25.14;85.33
20942;BME280;10630;53.734;10.282;2022-07-01T13:11:29;100995.41;;;23.46;82.31
20942;BME280;10630;53.734;10.282;2022-07-01T13:14:08;101245.16;;;24.44;87.49
20942;BME280;10630;53.734;10.282;2022-07-01T13:17:21;101204.69;;;25.04;84.11
20942;BME280;10630;53.734;10.282;2022-07-01T13:19:54;101028.06;;;23.51;83.27
20942;BME280;10630;53.734;10.282;2022-07-01T13:22:43;101079.22;;;24.22;81.34
20942;BME280;10630;53.734;10.282;2022-07-01T13:25:15;100954.63;;;23.80;78.28
20942;BME280;10630;53.734;10.282;2022-07-01T13:28:19;101270.53;;;26.12;79.07
20942;BME280;10630;53.734;10.282;2022-07-01T13:30:51;100979.00;;;24.09;79.36
20942;BME280;10630;53.734;10.282;2022-07-01T13:33:21;101269.28;;;25.09;79.78
20942;BME280;10630;53.734;10.282;2022-07-01T13:39:40;101279.66;;;25.51;79.43
20942;BME280;10630;53.734;10.282;2022-07-01T14:00:34;101003.19;;;24.10;77.68
20942;BME280;10630;53.734;10.282;2022-07-01T14:03:06;101065.78;;;23.81;79.97
20942;BME280;10630;53.734;10.282;2022-07-01T14:05:43;101009.56;;;23.48;83.74
20942;BME280;10630;53.734;10.282;2022-07-01T14:24:31;101314.28;;;26.22;72.95
20942;BME280;10630;53.734;10.282;2022-07-01T14:31:27;101322.91;;;25.92;68.60
20942;BME280;10630;53.734;10.282;2022-07-01T14:41:37;101116.09;;;23.84;73.70
20942;BME280;10630;53.734;10.282;2022-07-01T14:52:21;100941.81;;;23.58;68.19
20942;BME280;10630;53.734;10.282;2022-07-01T17:30:08;101407.84;;;26.50;60.40
20942;BME280;10630;53.734;10.282;2022-07-01T17:32:54;101402.69;;;26.27;61.66
20942;BME280;10630;53.734;10.282;2022-07-01T17:39:51;101409.47;;;26.51;60.81
20942;BME280;10630;53.734;10.282;2022-07-01T17:42:53;100961.72;;;23.81;59.96
20942;BME280;10630;53.734;10.282;2022-07-01T17:46:11;101139.22;;;25.16;60.04
20942;BME280;10630;53.734;10.282;2022-07-01T17:49:05;101401.81;;;26.76;60.79
20942;BME280;10630;53.734;10.282;2022-07-01T18:52:32;101335.00;;;23.27;68.96
20942;BME280;10630;53.734;10.282;2022-07-01T18:55:07;101296.06;;;23.21;67.48
20942;BME280;10630;53.734;10.282;2022-07-01T18:57:55;101346.81;;;23.45;68.26
20942;BME280;10630;53.734;10.282;2022-07-01T19:00:29;101275.03;;;23.05;68.66
20942;BME280;10630;53.734;10.282;2022-07-01T19:03:00;101260.78;;;23.21;67.21
20942;BME280;10630;53.734;10.282;2022-07-01T19:05:32;101485.56;;;24.55;67.67
20942;BME280;10630;53.734;10.282;2022-07-01T19:08:02;101481.44;;;24.41;68.77
20942;BME280;10630;53.734;10.282;2022-07-01T19:10:35;101488.47;;;24.65;68.99
20942;BME280;10630;53.734;10.282;2022-07-01T19:13:20;101478.00;;;24.86;68.12
20942;BME280;10630;53.734;10.282;2022-07-01T19:15:54;101292.34;;;23.63;67.41
20942;BME280;10630;53.734;10.282;2022-07-01T19:18:26;101325.59;;;23.94;67.49
20942;BME280;10630;53.734;10.282;2022-07-01T19:20:57;101460.16;;;24.78;66.67
20942;BME280;10630;53.734;10.282;2022-07-01T19:23:35;101518.59;;;25.05;66.79
20942;BME280;10630;53.734;10.282;2022-07-01T19:26:12;101252.22;;;23.42;67.98
20942;BME280;10630;53.734;10.282;2022-07-01T19:28:45;101015.41;;;21.70;68.17
20942;BME280;10630;53.734;10.282;2022-07-01T19:31:16;101201.06;;;23.10;67.73
20942;BME280;10630;53.734;10.282;2022-07-01T19:33:46;101516.59;;;24.83;68.18
20942;BME280;10630;53.734;10.282;2022-07-01T19:36:13;101221.47;;;23.00;69.05
20942;BME280;10630;53.734;10.282;2022-07-01T19:38:43;101141.19;;;22.40;70.28
20942;BME280;10630;53.734;10.282;2022-07-01T19:41:13;101463.50;;;24.40;70.42
20942;BME280;10630;53.734;10.282;2022-07-01T19:43:41;101523.84;;;24.65;69.94
20942;BME280;10630;53.734;10.282;2022-07-01T19:46:07;101474.44;;;24.57;68.87
20942;BME280;10630;53.734;10.282;2022-07-01T19:48:34;101528.25;;;24.95;68.40
20942;BME280;10630;53.734;10.282;2022-07-01T19:51:01;101465.00;;;24.47;68.12
20942;BME280;10630;53.734;10.282;2022-07-01T19:53:28;101095.03;;;21.92;68.42
20942;BME280;10630;53.734;10.282;2022-07-01T19:55:56;101562.56;;;24.68;69.58
20942;BME280;10630;53.734;10.282;2022-07-01T19:58:27;101508.13;;;24.03;70.46
20942;BME280;10630;53.734;10.282;2022-07-01T20:00:58;101561.25;;;24.58;70.81
20942;BME280;10630;53.734;10.282;2022-07-01T20:03:25;101570.84;;;24.49;71.79
20942;BME280;10630;53.734;10.282;2022-07-01T20:05:54;101566.00;;;24.51;71.97
20942;BME280;10630;53.734;10.282;2022-07-01T20:08:22;101560.66;;;24.56;71.72
20942;BME280;10630;53.734;10.282;2022-07-01T20:10:51;101252.25;;;22.47;70.72
20942;BME280;10630;53.734;10.282;2022-07-01T20:13:22;101522.34;;;24.05;71.63
20942;BME280;10630;53.734;10.282;2022-07-01T20:15:53;101570.72;;;24.56;70.84
20942;BME280;10630;53.734;10.282;2022-07-01T20:18:29;101453.53;;;23.57;71.93
20942;BME280;10630;53.734;10.282;2022-07-01T20:21:00;101303.44;;;22.55;72.03
20942;BME280;10630;53.734;10.282;2022-07-01T20:23:32;101590.03;;;24.30;72.28
20942;BME280;10630;53.734;10.282;2022-07-01T20:26:00;101607.66;;;24.28;72.32
20942;BME280;10630;53.734;10.282;2022-07-01T20:28:28;101533.75;;;23.83;72.44
20942;BME280;10630;53.734;10.282;2022-07-01T20:31:03;101563.09;;;24.17;72.06
20942;BME280;10630;53.734;10.282;2022-07-01T20:33:30;101606.00;;;24.15;73.00
20942;BME280;10630;53.734;10.282;2022-07-01T20:36:00;101518.28;;;23.60;72.29
20942;BME280;10630;53.734;10.282;2022-07-01T20:38:29;101196.13;;;21.62;70.56
20942;BME280;10630;53.734;10.282;2022-07-01T20:41:10;101646.91;;;24.08;72.38
20942;BME280;10630;53.734;10.282;2022-07-01T20:43:41;101634.59;;;24.06;73.07
20942;BME280;10630;53.734;10.282;2022-07-01T20:46:11;101321.53;;;22.12;72.12
20942;BME280;10630;53.734;10.282;2022-07-01T20:48:46;101640.84;;;24.06;72.88
20942;BME280;10630;53.734;10.282;2022-07-01T20:51:17;101478.38;;;23.06;72.17
20942;BME280;10630;53.734;10.282;2022-07-01T20:53:47;101570.00;;;23.65;72.34
20942;BME280;10630;53.734;10.282;2022-07-01T20:56:14;101638.97;;;24.07;72.61
20942;BME280;10630;53.734;10.282;2022-07-01T20:58:49;101639.34;;;23.98;72.10
20942;BME280;10630;53.734;10.282;2022-07-01T21:01:33;101653.13;;;23.85;72.96
20942;BME280;10630;53.734;10.282;2022-07-01T21:04:00;101591.16;;;23.63;72.30
20942;BME280;10630;53.734;10.282;2022-07-01T21:06:44;101422.41;;;22.51;71.92
20942;BME280;10630;53.734;10.282;2022-07-01T21:09:15;101658.41;;;23.92;72.32